createdAt,value
2022-11-03T00:00:57.311Z,999.51
2022-11-03T00:01:57.369Z,999.50
2022-11-03T00:02:57.331Z,999.47
2022-11-03T00:03:57.271Z,999.47
2022-11-03T00:04:57.247Z,999.43
2022-11-03T00:05:57.270Z,999.50
2022-11-03T00:06:57.233Z,999.42
2022-11-03T00:07:57.222Z,999.48
2022-11-03T00:08:57.219Z,999.43
2022-11-03T00:09:57.213Z,999.42
2022-11-03T00:10:57.197Z,999.46
2022-11-03T00:11:57.218Z,999.43
2022-11-03T00:12:57.182Z,999.50
2022-11-03T00:13:57.227Z,999.45
2022-11-03T00:14:57.166Z,999.51
2022-11-03T00:15:57.198Z,999.49
2022-11-03T00:16:57.167Z,999.46
2022-11-03T00:17:57.156Z,999.48
2022-11-03T00:18:57.144Z,999.48
2022-11-03T00:19:57.140Z,999.49
2022-11-03T00:20:57.159Z,999.43
2022-11-03T00:21:57.111Z,999.41
2022-11-03T00:22:57.106Z,999.45
2022-11-03T00:23:57.101Z,999.37
2022-11-03T00:24:57.090Z,999.33
2022-11-03T00:25:57.088Z,999.33
2022-11-03T00:26:57.109Z,999.40
2022-11-03T00:27:57.118Z,999.29
2022-11-03T00:28:57.064Z,999.23
2022-11-03T00:29:57.055Z,999.36
2022-11-03T00:30:57.051Z,999.30
2022-11-03T00:31:57.060Z,999.32
2022-11-03T00:32:57.031Z,999.31
2022-11-03T00:33:57.026Z,999.31
2022-11-03T00:34:57.017Z,999.23
2022-11-03T00:35:57.008Z,999.25
2022-11-03T00:36:57.059Z,999.29
2022-11-03T00:37:56.989Z,999.24
2022-11-03T00:38:56.991Z,999.23
2022-11-03T00:39:56.982Z,999.22
2022-11-03T00:40:56.972Z,999.20
2022-11-03T00:41:56.991Z,999.21
2022-11-03T00:42:56.951Z,999.17
2022-11-03T00:43:56.942Z,999.19
2022-11-03T00:44:56.932Z,999.16
2022-11-03T00:45:56.939Z,999.18
2022-11-03T00:46:56.952Z,999.10
2022-11-03T00:47:56.943Z,999.16
2022-11-03T00:48:56.905Z,999.01
2022-11-03T00:49:56.897Z,999.01
2022-11-03T00:50:56.894Z,999.03
2022-11-03T00:51:56.911Z,999.03
2022-11-03T00:52:56.887Z,999.07
2022-11-03T00:53:56.873Z,999.04
2022-11-03T00:54:56.862Z,999.02
2022-11-03T00:55:56.855Z,998.98
2022-11-03T00:56:56.889Z,998.97
2022-11-03T00:57:56.839Z,999.05
2022-11-03T00:58:56.832Z,999.07
2022-11-03T00:59:56.830Z,998.97
2022-11-03T01:00:56.892Z,999.04
2022-11-03T01:01:56.929Z,999.02
2022-11-03T01:02:56.800Z,999.04
2022-11-03T01:03:56.808Z,998.92
2022-11-03T01:04:56.793Z,999.06
2022-11-03T01:05:56.824Z,999.04
2022-11-03T01:06:56.805Z,999.03
2022-11-03T01:07:56.799Z,999.01
2022-11-03T01:08:56.759Z,998.98
2022-11-03T01:09:56.763Z,998.99
2022-11-03T01:10:56.751Z,999.01
2022-11-03T01:11:56.771Z,998.97
2022-11-03T01:12:56.734Z,998.96
2022-11-03T01:13:56.728Z,998.89
2022-11-03T01:14:56.719Z,998.88
2022-11-03T01:15:56.787Z,998.87
2022-11-03T01:16:56.733Z,998.87
2022-11-03T01:17:56.722Z,998.84
2022-11-03T01:18:56.688Z,998.92
2022-11-03T01:19:56.674Z,998.86
2022-11-03T01:20:56.660Z,998.80
2022-11-03T01:21:57.694Z,998.71
2022-11-03T01:22:56.650Z,998.79
2022-11-03T01:23:56.644Z,998.70
2022-11-03T01:24:56.649Z,998.74
2022-11-03T01:25:56.628Z,998.76
2022-11-03T01:26:56.648Z,998.70
2022-11-03T01:27:56.666Z,998.68
2022-11-03T01:28:56.611Z,998.67
2022-11-03T01:29:56.596Z,998.63
2022-11-03T01:30:56.595Z,998.63
2022-11-03T01:31:56.617Z,998.75
2022-11-03T01:32:56.577Z,998.68
2022-11-03T01:33:56.571Z,998.64
2022-11-03T01:34:56.561Z,998.59
2022-11-03T01:35:56.561Z,998.56
2022-11-03T01:36:56.575Z,998.58
2022-11-03T01:37:56.555Z,998.54
2022-11-03T01:38:56.540Z,998.51
2022-11-03T01:39:56.529Z,998.47
2022-11-03T01:40:56.523Z,998.43
2022-11-03T01:41:56.605Z,998.43
2022-11-03T01:42:56.515Z,998.48
2022-11-03T01:43:56.510Z,998.42
2022-11-03T01:44:56.492Z,998.38
2022-11-03T01:45:56.489Z,998.41
2022-11-03T01:46:56.507Z,998.33
2022-11-03T01:47:56.465Z,998.29
2022-11-03T01:48:56.463Z,998.30
2022-11-03T01:49:56.453Z,998.32
2022-11-03T01:50:56.448Z,998.25
2022-11-03T01:51:56.476Z,998.24
2022-11-03T01:52:56.435Z,998.26
2022-11-03T01:53:56.491Z,998.19
2022-11-03T01:54:56.426Z,998.24
2022-11-03T01:55:56.415Z,998.18
2022-11-03T01:56:56.409Z,998.18
2022-11-03T01:57:56.417Z,998.15
2022-11-03T01:58:56.389Z,998.16
2022-11-03T01:59:56.385Z,998.09
2022-11-03T02:00:56.396Z,998.11
2022-11-03T02:01:56.515Z,998.14
2022-11-03T02:02:56.368Z,998.08
2022-11-03T02:03:56.354Z,998.06
2022-11-03T02:04:56.352Z,998.06
2022-11-03T02:05:56.325Z,997.97
2022-11-03T02:06:57.375Z,997.95
2022-11-03T02:07:56.411Z,997.88
2022-11-03T02:08:56.321Z,997.87
2022-11-03T02:09:56.316Z,997.85
2022-11-03T02:10:56.302Z,997.88
2022-11-03T02:11:56.317Z,997.83
2022-11-03T02:12:56.289Z,997.80
2022-11-03T02:13:56.283Z,997.77
2022-11-03T02:14:56.269Z,997.79
2022-11-03T02:15:56.263Z,997.82
2022-11-03T02:16:56.283Z,997.83
2022-11-03T02:17:56.246Z,997.85
2022-11-03T02:18:56.310Z,997.71
2022-11-03T02:19:56.236Z,997.80
2022-11-03T02:20:56.223Z,997.82
2022-11-03T02:21:56.243Z,997.90
2022-11-03T02:22:56.208Z,997.84
2022-11-03T02:23:56.209Z,997.91
2022-11-03T02:24:56.191Z,997.86
2022-11-03T02:25:56.206Z,997.87
2022-11-03T02:26:56.200Z,997.85
2022-11-03T02:27:56.168Z,997.80
2022-11-03T02:28:56.172Z,997.73
2022-11-03T02:29:56.160Z,997.74
2022-11-03T02:30:56.153Z,997.73
2022-11-03T02:31:56.173Z,997.72
2022-11-03T02:32:56.140Z,997.74
2022-11-03T02:33:56.148Z,997.76
2022-11-03T02:34:56.122Z,997.77
2022-11-03T02:35:56.116Z,997.79
2022-11-03T02:36:56.107Z,997.78
2022-11-03T02:37:56.132Z,997.79
2022-11-03T02:38:56.091Z,997.77
2022-11-03T02:39:56.089Z,997.78
2022-11-03T02:40:56.074Z,997.78
2022-11-03T02:41:56.079Z,997.71
2022-11-03T02:42:56.085Z,997.78
2022-11-03T02:43:56.048Z,997.72
2022-11-03T02:44:56.055Z,997.75
2022-11-03T02:45:56.050Z,997.78
2022-11-03T02:46:56.058Z,997.78
2022-11-03T02:47:56.017Z,997.74
2022-11-03T02:48:56.014Z,997.81
2022-11-03T02:50:57.002Z,997.76
2022-11-03T02:51:56.029Z,997.75
2022-11-03T02:52:55.984Z,997.69
2022-11-03T02:53:55.976Z,997.70
2022-11-03T02:54:55.969Z,997.62
2022-11-03T02:55:55.962Z,997.57
2022-11-03T02:56:55.980Z,997.58
2022-11-03T02:57:55.947Z,997.59
2022-11-03T02:58:55.932Z,997.58
2022-11-03T02:59:55.936Z,997.60
2022-11-03T03:00:55.964Z,997.58
2022-11-03T03:01:56.036Z,997.54
2022-11-03T03:02:55.906Z,997.48
2022-11-03T03:03:55.901Z,997.50
2022-11-03T03:04:55.881Z,997.45
2022-11-03T03:05:55.880Z,997.47
2022-11-03T03:06:55.899Z,997.55
2022-11-03T03:07:55.872Z,997.47
2022-11-03T03:08:55.857Z,997.44
2022-11-03T03:09:55.854Z,997.48
2022-11-03T03:10:55.850Z,997.47
2022-11-03T03:11:55.860Z,997.44
2022-11-03T03:12:55.827Z,997.48
2022-11-03T03:13:55.820Z,997.50
2022-11-03T03:14:55.829Z,997.56
2022-11-03T03:15:55.804Z,997.40
2022-11-03T03:16:55.817Z,997.37
2022-11-03T03:17:55.794Z,997.32
2022-11-03T03:18:55.777Z,997.34
2022-11-03T03:19:55.789Z,997.38
2022-11-03T03:20:55.772Z,997.44
2022-11-03T03:21:55.782Z,997.38
2022-11-03T03:22:55.753Z,997.38
2022-11-03T03:23:55.748Z,997.40
2022-11-03T03:24:55.742Z,997.41
2022-11-03T03:25:55.718Z,997.38
2022-11-03T03:26:56.766Z,997.39
2022-11-03T03:27:55.722Z,997.34
2022-11-03T03:28:55.710Z,997.35
2022-11-03T03:29:55.734Z,997.33
2022-11-03T03:30:55.707Z,997.26
2022-11-03T03:31:55.713Z,997.32
2022-11-03T03:32:55.675Z,997.30
2022-11-03T03:34:04.463Z,997.30
2022-11-03T03:34:57.657Z,997.19
2022-11-03T03:35:55.655Z,997.27
2022-11-03T03:36:55.648Z,997.26
2022-11-03T03:37:55.668Z,997.21
2022-11-03T03:38:55.635Z,997.27
2022-11-03T03:39:56.468Z,997.25
2022-11-03T03:40:55.685Z,997.26
2022-11-03T03:41:55.608Z,997.26
2022-11-03T03:42:55.646Z,997.26
2022-11-03T03:43:55.602Z,997.24
2022-11-03T03:44:55.584Z,997.23
2022-11-03T03:45:55.582Z,997.18
2022-11-03T03:46:55.569Z,997.32
2022-11-03T03:47:57.807Z,997.25
2022-11-03T03:48:57.561Z,997.19
2022-11-03T03:49:55.548Z,997.24
2022-11-03T03:50:55.558Z,997.26
2022-11-03T03:51:55.564Z,997.24
2022-11-03T03:52:55.536Z,997.23
2022-11-03T03:53:55.520Z,997.21
2022-11-03T03:54:55.516Z,997.23
2022-11-03T03:55:55.532Z,997.15
2022-11-03T03:56:55.490Z,997.28
2022-11-03T03:57:59.426Z,997.20
2022-11-03T03:58:55.483Z,997.17
2022-11-03T03:59:55.479Z,997.15
2022-11-03T04:00:55.551Z,997.20
2022-11-03T04:01:55.580Z,997.11
2022-11-03T04:02:55.474Z,997.07
2022-11-03T04:03:55.449Z,997.08
2022-11-03T04:04:55.435Z,997.13
2022-11-03T04:05:55.424Z,997.08
2022-11-03T04:06:55.449Z,996.96
2022-11-03T04:07:55.440Z,997.06
2022-11-03T04:08:55.408Z,997.09
2022-11-03T04:09:55.512Z,996.98
2022-11-03T04:10:55.396Z,997.02
2022-11-03T04:11:55.372Z,997.03
2022-11-03T04:12:56.403Z,997.03
2022-11-03T04:13:55.367Z,997.03
2022-11-03T04:14:55.377Z,996.99
2022-11-03T04:15:55.355Z,996.97
2022-11-03T04:16:55.343Z,996.96
2022-11-03T04:17:55.367Z,996.99
2022-11-03T04:18:55.320Z,996.95
2022-11-03T04:19:55.326Z,996.99
2022-11-03T04:20:55.317Z,996.99
2022-11-03T04:21:55.322Z,996.97
2022-11-03T04:22:55.325Z,996.90
2022-11-03T04:23:55.294Z,996.94
2022-11-03T04:24:55.294Z,996.99
2022-11-03T04:25:55.286Z,996.81
2022-11-03T04:26:55.269Z,996.92
2022-11-03T04:27:55.293Z,996.88
2022-11-03T04:28:55.287Z,996.86
2022-11-03T04:29:55.250Z,996.83
2022-11-03T04:30:57.746Z,996.84
2022-11-03T04:31:55.229Z,996.73
2022-11-03T04:32:55.246Z,996.67
2022-11-03T04:33:55.213Z,996.73
2022-11-03T04:34:55.201Z,996.69
2022-11-03T04:35:55.198Z,996.66
2022-11-03T04:36:55.189Z,996.69
2022-11-03T04:37:55.213Z,996.61
2022-11-03T04:38:55.172Z,996.64
2022-11-03T04:39:55.169Z,996.60
2022-11-03T04:40:55.255Z,996.59
2022-11-03T04:41:55.148Z,996.58
2022-11-03T04:42:55.171Z,996.56
2022-11-03T04:43:55.137Z,996.51
2022-11-03T04:44:55.125Z,996.49
2022-11-03T04:45:55.126Z,996.50
2022-11-03T04:46:55.114Z,996.48
2022-11-03T04:47:56.132Z,996.40
2022-11-03T04:48:55.100Z,996.47
2022-11-03T04:49:55.101Z,996.41
2022-11-03T04:50:55.082Z,996.36
2022-11-03T04:51:55.077Z,996.34
2022-11-03T04:52:55.106Z,996.37
2022-11-03T04:53:55.064Z,996.37
2022-11-03T04:54:55.364Z,996.31
2022-11-03T04:55:55.046Z,996.30
2022-11-03T04:56:55.041Z,996.32
2022-11-03T04:57:55.052Z,996.34
2022-11-03T04:58:55.022Z,996.28
2022-11-03T04:59:55.018Z,996.31
2022-11-03T05:00:55.098Z,996.32
2022-11-03T05:01:55.205Z,996.25
2022-11-03T05:02:56.460Z,996.28
2022-11-03T05:03:55.000Z,996.27
2022-11-03T05:04:54.994Z,996.30
2022-11-03T05:05:54.968Z,996.27
2022-11-03T05:06:54.990Z,996.34
2022-11-03T05:07:55.049Z,996.30
2022-11-03T05:08:54.970Z,996.31
2022-11-03T05:09:54.955Z,996.34
2022-11-03T05:10:54.945Z,996.30
2022-11-03T05:11:54.950Z,996.30
2022-11-03T05:12:54.961Z,996.25
2022-11-03T05:13:54.910Z,996.22
2022-11-03T05:14:58.695Z,996.28
2022-11-03T05:15:55.892Z,996.27
2022-11-03T05:16:54.886Z,996.20
2022-11-03T05:17:54.930Z,996.23
2022-11-03T05:18:54.871Z,996.28
2022-11-03T05:19:54.861Z,996.25
2022-11-03T05:20:54.852Z,996.23
2022-11-03T05:21:54.848Z,996.26
2022-11-03T05:22:54.910Z,996.21
2022-11-03T05:23:54.863Z,996.21
2022-11-03T05:24:54.831Z,996.18
2022-11-03T05:25:54.813Z,996.23
2022-11-03T05:26:54.841Z,996.12
2022-11-03T05:27:54.801Z,996.07
2022-11-03T05:28:54.803Z,996.09
2022-11-03T05:29:57.819Z,996.15
2022-11-03T05:30:55.774Z,996.15
2022-11-03T05:31:54.811Z,996.25
2022-11-03T05:32:54.760Z,996.14
2022-11-03T05:33:54.762Z,996.06
2022-11-03T05:34:54.765Z,996.04
2022-11-03T05:35:54.744Z,996.04
2022-11-03T05:36:54.772Z,996.07
2022-11-03T05:37:54.720Z,996.04
2022-11-03T05:38:54.723Z,996.06
2022-11-03T05:39:54.712Z,995.99
2022-11-03T05:40:54.711Z,995.98
2022-11-03T05:41:54.704Z,995.98
2022-11-03T05:42:54.714Z,995.92
2022-11-03T05:43:54.669Z,996.01
2022-11-03T05:44:55.678Z,995.94
2022-11-03T05:45:54.727Z,995.92
2022-11-03T05:46:54.690Z,995.87
2022-11-03T05:47:54.645Z,995.91
2022-11-03T05:48:54.637Z,995.91
2022-11-03T05:49:54.638Z,995.87
2022-11-03T05:50:54.625Z,995.90
2022-11-03T05:51:54.666Z,995.92
2022-11-03T05:52:54.615Z,995.89
2022-11-03T05:53:54.609Z,995.90
2022-11-03T05:54:54.596Z,995.85
2022-11-03T05:55:54.593Z,995.92
2022-11-03T05:56:54.618Z,995.95
2022-11-03T05:57:54.570Z,995.90
2022-11-03T05:58:54.564Z,995.89
2022-11-03T05:59:55.564Z,995.92
2022-11-03T06:00:54.563Z,995.91
2022-11-03T06:01:54.705Z,995.88
2022-11-03T06:02:54.685Z,995.83
2022-11-03T06:03:54.529Z,995.88
2022-11-03T06:04:54.526Z,995.80
2022-11-03T06:05:54.518Z,995.84
2022-11-03T06:06:54.551Z,995.82
2022-11-03T06:07:54.504Z,995.79
2022-11-03T06:08:54.494Z,995.86
2022-11-03T06:09:54.487Z,995.88
2022-11-03T06:10:54.483Z,995.80
2022-11-03T06:11:54.505Z,995.76
2022-11-03T06:12:54.466Z,995.80
2022-11-03T06:13:54.459Z,995.82
2022-11-03T06:14:54.447Z,995.78
2022-11-03T06:15:54.445Z,995.82
2022-11-03T06:16:54.462Z,995.78
2022-11-03T06:17:54.460Z,995.87
2022-11-03T06:18:54.546Z,995.78
2022-11-03T06:19:54.424Z,995.74
2022-11-03T06:20:54.415Z,995.68
2022-11-03T06:21:54.409Z,995.73
2022-11-03T06:22:55.423Z,995.76
2022-11-03T06:23:54.403Z,995.74
2022-11-03T06:24:54.375Z,995.80
2022-11-03T06:25:54.368Z,995.73
2022-11-03T06:26:54.360Z,995.73
2022-11-03T06:27:54.388Z,995.76
2022-11-03T06:28:54.345Z,995.71
2022-11-03T06:29:54.341Z,995.81
2022-11-03T06:30:54.332Z,995.70
2022-11-03T06:31:54.324Z,995.75
2022-11-03T06:32:54.357Z,995.78
2022-11-03T06:33:54.326Z,995.81
2022-11-03T06:34:54.306Z,995.76
2022-11-03T06:35:54.434Z,995.77
2022-11-03T06:36:54.286Z,995.80
2022-11-03T06:37:54.336Z,995.76
2022-11-03T06:38:54.285Z,995.70
2022-11-03T06:39:54.293Z,995.77
2022-11-03T06:40:54.264Z,995.78
2022-11-03T06:41:54.241Z,995.79
2022-11-03T06:42:54.271Z,995.78
2022-11-03T06:43:54.240Z,995.78
2022-11-03T06:44:54.323Z,995.77
2022-11-03T06:45:54.227Z,995.82
2022-11-03T06:46:54.211Z,995.88
2022-11-03T06:47:54.223Z,995.85
2022-11-03T06:48:54.195Z,995.81
2022-11-03T06:49:54.187Z,995.84
2022-11-03T06:50:54.189Z,995.88
2022-11-03T06:51:54.174Z,995.83
2022-11-03T06:52:54.201Z,995.85
2022-11-03T06:53:54.160Z,995.77
2022-11-03T06:54:54.162Z,995.80
2022-11-03T06:55:54.137Z,995.79
2022-11-03T06:56:54.146Z,995.72
2022-11-03T06:57:54.165Z,995.74
2022-11-03T06:58:54.166Z,995.68
2022-11-03T07:00:06.810Z,995.71
2022-11-03T07:01:02.641Z,995.68
2022-11-03T07:01:56.268Z,995.60
2022-11-03T07:02:54.127Z,995.59
2022-11-03T07:03:54.102Z,995.62
2022-11-03T07:04:54.094Z,995.62
2022-11-03T07:05:54.122Z,995.65
2022-11-03T07:06:54.970Z,995.64
2022-11-03T07:07:54.077Z,995.58
2022-11-03T07:08:54.042Z,995.59
2022-11-03T07:09:54.043Z,995.58
2022-11-03T07:10:54.034Z,995.64
2022-11-03T07:11:54.013Z,995.60
2022-11-03T07:12:55.036Z,995.67
2022-11-03T07:13:54.004Z,995.58
2022-11-03T07:14:54.062Z,995.58
2022-11-03T07:15:53.990Z,995.57
2022-11-03T07:16:53.985Z,995.64
2022-11-03T07:17:54.002Z,995.65
2022-11-03T07:18:53.974Z,995.61
2022-11-03T07:19:53.966Z,995.58
2022-11-03T07:20:53.952Z,995.64
2022-11-03T07:21:53.961Z,995.54
2022-11-03T07:22:53.966Z,995.48
2022-11-03T07:23:53.933Z,995.54
2022-11-03T07:24:53.928Z,995.56
2022-11-03T07:25:53.927Z,995.51
2022-11-03T07:26:53.908Z,995.52
2022-11-03T07:27:53.929Z,995.47
2022-11-03T07:28:53.902Z,995.49
2022-11-03T07:29:53.896Z,995.41
2022-11-03T07:30:53.915Z,995.37
2022-11-03T07:31:53.874Z,995.47
2022-11-03T07:32:53.889Z,995.44
2022-11-03T07:33:53.863Z,995.37
2022-11-03T07:34:53.850Z,995.36
2022-11-03T07:36:14.408Z,995.38
2022-11-03T07:36:56.261Z,995.38
2022-11-03T07:37:54.861Z,995.41
2022-11-03T07:38:53.833Z,995.35
2022-11-03T07:39:53.851Z,995.43
2022-11-03T07:40:53.812Z,995.36
2022-11-03T07:41:53.797Z,995.31
2022-11-03T07:42:53.884Z,995.30
2022-11-03T07:43:53.786Z,995.28
2022-11-03T07:44:53.779Z,995.24
2022-11-03T07:45:53.771Z,995.19
2022-11-03T07:46:53.778Z,995.20
2022-11-03T07:47:53.785Z,995.23
2022-11-03T07:48:53.747Z,995.11
2022-11-03T07:49:53.743Z,995.20
2022-11-03T07:50:53.745Z,995.14
2022-11-03T07:51:53.726Z,995.24
2022-11-03T07:52:53.748Z,995.15
2022-11-03T07:53:53.708Z,995.04
2022-11-03T07:54:53.706Z,995.09
2022-11-03T07:55:53.775Z,995.06
2022-11-03T07:56:53.693Z,994.98
2022-11-03T07:57:53.692Z,995.01
2022-11-03T07:58:54.682Z,995.00
2022-11-03T07:59:53.664Z,994.99
2022-11-03T08:00:53.670Z,994.85
2022-11-03T08:01:53.783Z,994.90
2022-11-03T08:02:53.736Z,994.93
2022-11-03T08:03:53.632Z,994.95
2022-11-03T08:04:53.633Z,994.97
2022-11-03T08:05:53.631Z,994.93
2022-11-03T08:06:53.607Z,994.96
2022-11-03T08:07:53.631Z,994.85
2022-11-03T08:08:53.595Z,994.85
2022-11-03T08:09:53.585Z,994.91
2022-11-03T08:10:53.579Z,994.85
2022-11-03T08:11:53.584Z,994.86
2022-11-03T08:12:53.594Z,994.85
2022-11-03T08:13:53.556Z,994.87
2022-11-03T08:14:53.551Z,994.75
2022-11-03T08:15:53.552Z,994.71
2022-11-03T08:16:53.528Z,994.82
2022-11-03T08:17:56.113Z,994.73
2022-11-03T08:18:54.516Z,994.70
2022-11-03T08:19:53.505Z,994.79
2022-11-03T08:20:53.498Z,994.75
2022-11-03T08:21:53.498Z,994.74
2022-11-03T08:23:19.689Z,994.67
2022-11-03T08:23:55.472Z,994.71
2022-11-03T08:24:53.469Z,994.66
2022-11-03T08:25:53.457Z,994.67
2022-11-03T08:26:53.464Z,994.57
2022-11-03T08:27:53.467Z,994.54
2022-11-03T08:28:53.448Z,994.50
2022-11-03T08:29:53.432Z,994.50
2022-11-03T08:30:53.426Z,994.49
2022-11-03T08:31:53.427Z,994.52
2022-11-03T08:32:53.437Z,994.50
2022-11-03T08:33:53.402Z,994.46
2022-11-03T08:34:53.393Z,994.48
2022-11-03T08:35:53.387Z,994.42
2022-11-03T08:36:53.373Z,994.44
2022-11-03T08:37:53.397Z,994.44
2022-11-03T08:38:53.387Z,994.39
2022-11-03T08:39:53.355Z,994.41
2022-11-03T08:40:55.306Z,994.40
2022-11-03T08:41:53.342Z,994.32
2022-11-03T08:42:53.339Z,994.34
2022-11-03T08:43:53.356Z,994.34
2022-11-03T08:44:53.357Z,994.26
2022-11-03T08:45:53.304Z,994.22
2022-11-03T08:46:53.307Z,994.22
2022-11-03T08:47:53.290Z,994.20
2022-11-03T08:48:53.303Z,994.20
2022-11-03T08:49:54.273Z,994.15
2022-11-03T08:50:53.267Z,994.13
2022-11-03T08:51:54.278Z,994.15
2022-11-03T08:52:53.255Z,994.13
2022-11-03T08:53:53.276Z,994.13
2022-11-03T08:54:53.275Z,994.10
2022-11-03T08:55:53.226Z,994.07
2022-11-03T08:56:53.229Z,994.14
2022-11-03T08:57:53.215Z,994.08
2022-11-03T08:58:53.238Z,994.00
2022-11-03T08:59:53.199Z,994.00
2022-11-03T09:00:53.197Z,994.00
2022-11-03T09:01:53.346Z,994.04
2022-11-03T09:02:53.177Z,994.02
2022-11-03T09:03:53.232Z,994.02
2022-11-03T09:04:53.170Z,993.98
2022-11-03T09:05:53.157Z,993.95
2022-11-03T09:06:53.143Z,993.96
2022-11-03T09:10:30.000Z,993.91
2022-11-03T09:10:55.130Z,993.83
2022-11-03T09:11:53.112Z,993.83
2022-11-03T09:12:53.101Z,993.75
2022-11-03T09:13:53.136Z,993.76
2022-11-03T09:14:53.095Z,993.72
2022-11-03T09:15:53.081Z,993.69
2022-11-03T09:16:53.111Z,993.68
2022-11-03T09:17:53.075Z,993.63
2022-11-03T09:18:53.081Z,993.58
2022-11-03T09:19:53.047Z,993.62
2022-11-03T09:20:53.045Z,993.63
2022-11-03T09:21:53.032Z,993.59
2022-11-03T09:22:53.035Z,993.57
2022-11-03T09:23:53.053Z,993.52
2022-11-03T09:24:53.012Z,993.48
2022-11-03T09:25:53.025Z,993.55
2022-11-03T09:26:53.005Z,993.42
2022-11-03T09:27:52.990Z,993.45
2022-11-03T09:28:53.007Z,993.41
2022-11-03T09:30:12.339Z,993.31
2022-11-03T09:30:54.973Z,993.27
2022-11-03T09:31:52.959Z,993.30
2022-11-03T09:32:52.958Z,993.27
2022-11-03T09:33:52.973Z,993.31
2022-11-03T09:34:52.972Z,993.28
2022-11-03T09:35:52.934Z,993.30
2022-11-03T09:36:53.427Z,993.27
2022-11-03T09:37:53.920Z,993.25
2022-11-03T09:38:52.930Z,993.17
2022-11-03T09:39:52.901Z,993.23
2022-11-03T09:40:52.900Z,993.16
2022-11-03T09:41:58.733Z,993.09
2022-11-03T09:42:55.055Z,993.09
2022-11-03T09:43:52.894Z,993.04
2022-11-03T09:44:52.864Z,993.07
2022-11-03T09:45:52.852Z,992.96
2022-11-03T09:46:58.086Z,992.95
2022-11-03T09:47:54.835Z,992.92
2022-11-03T09:48:52.861Z,992.90
2022-11-03T09:49:52.829Z,992.97
2022-11-03T09:50:52.814Z,992.80
2022-11-03T09:51:52.813Z,992.88
2022-11-03T09:52:52.802Z,992.94
2022-11-03T09:53:52.818Z,992.89
2022-11-03T09:54:52.788Z,992.91
2022-11-03T09:55:52.800Z,992.92
2022-11-03T09:56:52.774Z,992.92
2022-11-03T09:57:52.772Z,992.86
2022-11-03T09:58:54.537Z,992.81
2022-11-03T09:59:53.755Z,992.80
2022-11-03T10:00:52.855Z,992.78
2022-11-03T10:01:52.833Z,992.86
2022-11-03T10:02:52.722Z,992.79
2022-11-03T10:03:52.746Z,992.75
2022-11-03T10:04:52.769Z,992.80
2022-11-03T10:05:52.705Z,992.85
2022-11-03T10:06:52.705Z,992.78
2022-11-03T10:07:52.697Z,992.73
2022-11-03T10:08:52.708Z,992.85
2022-11-03T10:09:52.673Z,992.85
2022-11-03T10:10:52.679Z,992.78
2022-11-03T10:11:52.654Z,992.79
2022-11-03T10:12:52.645Z,992.79
2022-11-03T10:13:52.681Z,992.71
2022-11-03T10:14:52.647Z,992.70
2022-11-03T10:15:52.626Z,992.75
2022-11-03T10:16:53.568Z,992.63
2022-11-03T10:17:52.628Z,992.71
2022-11-03T10:18:52.633Z,992.77
2022-11-03T10:19:52.599Z,992.74
2022-11-03T10:20:52.590Z,992.72
2022-11-03T10:21:52.590Z,992.73
2022-11-03T10:22:52.583Z,992.73
2022-11-03T10:23:52.592Z,992.65
2022-11-03T10:24:52.562Z,992.64
2022-11-03T10:25:52.549Z,992.55
2022-11-03T10:26:52.545Z,992.57
2022-11-03T10:27:53.540Z,992.63
2022-11-03T10:28:52.563Z,992.54
2022-11-03T10:29:56.434Z,992.51
2022-11-03T10:31:11.937Z,992.52
2022-11-03T10:31:54.510Z,992.47
2022-11-03T10:32:52.515Z,992.50
2022-11-03T10:33:52.533Z,992.49
2022-11-03T10:34:52.488Z,992.45
2022-11-03T10:35:52.483Z,992.35
2022-11-03T10:36:52.475Z,992.41
2022-11-03T10:37:52.469Z,992.37
2022-11-03T10:38:52.491Z,992.29
2022-11-03T10:39:52.450Z,992.28
2022-11-03T10:40:52.447Z,992.27
2022-11-03T10:41:52.421Z,992.27
2022-11-03T10:42:53.427Z,992.27
2022-11-03T10:43:52.448Z,992.21
2022-11-03T10:44:52.406Z,992.25
2022-11-03T10:45:52.398Z,992.16
2022-11-03T10:46:52.454Z,992.14
2022-11-03T10:47:55.610Z,992.04
2022-11-03T10:48:53.573Z,992.06
2022-11-03T10:49:52.374Z,991.99
2022-11-03T10:50:52.367Z,992.03
2022-11-03T10:51:52.534Z,992.00
2022-11-03T10:52:52.359Z,991.84
2022-11-03T10:53:52.372Z,991.81
2022-11-03T10:54:52.326Z,991.87
2022-11-03T10:55:52.323Z,991.75
2022-11-03T10:56:52.347Z,991.77
2022-11-03T10:57:53.197Z,991.76
2022-11-03T10:58:52.360Z,991.65
2022-11-03T10:59:52.290Z,991.61
2022-11-03T11:00:52.366Z,991.67
2022-11-03T11:01:52.345Z,991.54
2022-11-03T11:02:52.264Z,991.61
2022-11-03T11:03:52.348Z,991.53
2022-11-03T11:04:52.261Z,991.58
2022-11-03T11:05:52.248Z,991.55
2022-11-03T11:06:52.243Z,991.51
2022-11-03T11:07:52.287Z,991.49
2022-11-03T11:08:56.001Z,991.43
2022-11-03T11:09:54.231Z,991.31
2022-11-03T11:10:52.213Z,991.34
2022-11-03T11:11:52.202Z,991.27
2022-11-03T11:12:52.188Z,991.24
2022-11-03T11:13:52.221Z,991.26
2022-11-03T11:14:52.178Z,991.10
2022-11-03T11:15:52.192Z,991.13
2022-11-03T11:16:52.159Z,991.15
2022-11-03T11:17:52.156Z,991.10
2022-11-03T11:18:52.145Z,991.07
2022-11-03T11:19:52.171Z,991.05
2022-11-03T11:20:52.130Z,991.02
2022-11-03T11:21:52.125Z,990.93
2022-11-03T11:22:52.121Z,990.96
2022-11-03T11:23:52.107Z,991.07
2022-11-03T11:24:52.124Z,990.81
2022-11-03T11:25:52.089Z,990.78
2022-11-03T11:26:52.147Z,990.85
2022-11-03T11:27:55.558Z,990.71
2022-11-03T11:28:54.068Z,990.66
2022-11-03T11:29:52.098Z,990.61
2022-11-03T11:30:52.047Z,990.68
2022-11-03T11:31:52.031Z,990.63
2022-11-03T11:32:53.047Z,990.53
2022-11-03T11:33:52.027Z,990.63
2022-11-03T11:34:52.065Z,990.59
2022-11-03T11:35:56.495Z,990.59
2022-11-03T11:36:54.009Z,990.56
2022-11-03T11:37:51.995Z,990.58
2022-11-03T11:38:51.995Z,990.62
2022-11-03T11:39:52.009Z,990.51
2022-11-03T11:40:51.972Z,990.48
2022-11-03T11:41:51.973Z,990.50
2022-11-03T11:42:51.969Z,990.42
2022-11-03T11:43:51.970Z,990.54
2022-11-03T11:44:52.087Z,990.47
2022-11-03T11:45:51.939Z,990.49
2022-11-03T11:46:51.943Z,990.44
2022-11-03T11:47:51.926Z,990.44
2022-11-03T11:48:51.922Z,990.45
2022-11-03T11:49:51.956Z,990.47
2022-11-03T11:50:51.903Z,990.44
2022-11-03T11:51:51.893Z,990.36
2022-11-03T11:52:51.883Z,990.31
2022-11-03T11:54:16.262Z,990.29
2022-11-03T11:54:52.901Z,990.30
2022-11-03T11:55:51.868Z,990.24
2022-11-03T11:56:51.856Z,990.34
2022-11-03T11:57:51.884Z,990.23
2022-11-03T11:58:51.843Z,990.25
2022-11-03T11:59:51.878Z,990.16
2022-11-03T12:00:51.841Z,990.17
2022-11-03T12:01:51.884Z,990.14
2022-11-03T12:02:51.813Z,990.08
2022-11-03T12:03:51.920Z,990.07
2022-11-03T12:04:51.825Z,990.08
2022-11-03T12:05:51.784Z,990.12
2022-11-03T12:06:51.783Z,990.08
2022-11-03T12:07:51.757Z,990.06
2022-11-03T12:08:52.767Z,990.00
2022-11-03T12:09:51.781Z,989.96
2022-11-03T12:10:51.781Z,989.86
2022-11-03T12:11:55.328Z,989.82
2022-11-03T12:12:52.736Z,989.86
2022-11-03T12:13:51.733Z,989.82
2022-11-03T12:14:51.750Z,989.85
2022-11-03T12:15:51.715Z,989.80
2022-11-03T12:16:51.709Z,989.79
2022-11-03T12:17:51.699Z,989.81
2022-11-03T12:18:51.700Z,989.74
2022-11-03T12:19:51.707Z,989.64
2022-11-03T12:20:51.678Z,989.64
2022-11-03T12:21:51.679Z,989.57
2022-11-03T12:22:51.675Z,989.42
2022-11-03T12:23:51.650Z,989.41
2022-11-03T12:24:51.665Z,989.33
2022-11-03T12:25:52.647Z,989.44
2022-11-03T12:26:51.632Z,989.34
2022-11-03T12:27:51.621Z,989.39
2022-11-03T12:28:51.627Z,989.40
2022-11-03T12:29:51.633Z,989.38
2022-11-03T12:30:51.644Z,989.43
2022-11-03T12:31:51.595Z,989.27